createdAt,value
2022-09-23T00:00:35.306Z,12.94
2022-09-23T00:01:35.395Z,12.93
2022-09-23T00:02:35.353Z,12.90
2022-09-23T00:03:35.289Z,12.89
2022-09-23T00:04:35.318Z,12.88
2022-09-23T00:05:35.323Z,12.86
2022-09-23T00:06:35.327Z,12.85
2022-09-23T00:07:35.317Z,12.84
2022-09-23T00:11:35.306Z,12.85
2022-09-23T00:12:35.320Z,12.84
2022-09-23T00:13:35.326Z,12.83
2022-09-23T00:15:35.348Z,12.82
2022-09-23T00:16:35.403Z,12.83
2022-09-23T00:17:35.315Z,12.85
2022-09-23T00:18:35.349Z,12.86
2022-09-23T00:21:35.347Z,12.85
2022-09-23T00:22:35.357Z,12.84
2022-09-23T00:23:35.343Z,12.83
2022-09-23T00:24:35.350Z,12.81
2022-09-23T00:25:35.366Z,12.80
2022-09-23T00:26:35.378Z,12.78
2022-09-23T00:27:35.378Z,12.77
2022-09-23T00:28:35.371Z,12.76
2022-09-23T00:29:35.399Z,12.75
2022-09-23T00:30:35.448Z,12.73
2022-09-23T00:31:35.393Z,12.72
2022-09-23T00:33:35.406Z,12.73
2022-09-23T00:34:35.369Z,12.74
2022-09-23T00:36:35.393Z,12.75
2022-09-23T00:38:35.393Z,12.76
2022-09-23T00:41:35.405Z,12.74
2022-09-23T00:43:35.393Z,12.73
2022-09-23T00:44:35.424Z,12.74
2022-09-23T00:47:36.881Z,12.76
2022-09-23T00:49:35.427Z,12.74
2022-09-23T00:50:35.437Z,12.71
2022-09-23T00:51:35.428Z,12.70
2022-09-23T00:55:35.441Z,12.68
2022-09-23T00:56:35.453Z,12.66
2022-09-23T00:57:35.449Z,12.64
2022-09-23T00:58:35.445Z,12.62
2022-09-23T00:59:35.453Z,12.59
2022-09-23T01:00:35.469Z,12.57
2022-09-23T01:01:35.516Z,12.55
2022-09-23T01:03:35.448Z,12.53
2022-09-23T01:04:35.446Z,12.51
2022-09-23T01:05:35.446Z,12.50
2022-09-23T01:06:35.478Z,12.47
2022-09-23T01:07:35.472Z,12.46
2022-09-23T01:08:35.494Z,12.45
2022-09-23T01:09:35.532Z,12.44
2022-09-23T01:10:35.474Z,12.43
2022-09-23T01:11:35.467Z,12.42
2022-09-23T01:12:35.464Z,12.40
2022-09-23T01:13:35.509Z,12.37
2022-09-23T01:14:35.495Z,12.35
2022-09-23T01:15:35.477Z,12.31
2022-09-23T01:16:35.534Z,12.28
2022-09-23T01:17:35.495Z,12.27
2022-09-23T01:19:35.500Z,12.28
2022-09-23T01:21:35.523Z,12.27
2022-09-23T01:23:35.505Z,12.26
2022-09-23T01:24:35.502Z,12.25
2022-09-23T01:26:35.516Z,12.24
2022-09-23T01:27:35.527Z,12.23
2022-09-23T01:28:35.513Z,12.22
2022-09-23T01:29:35.527Z,12.23
2022-09-23T01:30:35.572Z,12.24
2022-09-23T01:32:35.539Z,12.25
2022-09-23T01:34:35.513Z,12.23
2022-09-23T01:35:35.521Z,12.20
2022-09-23T01:36:35.528Z,12.19
2022-09-23T01:37:35.514Z,12.18
2022-09-23T01:38:35.518Z,12.17
2022-09-23T01:40:35.611Z,12.16
2022-09-23T01:41:36.946Z,12.15
2022-09-23T01:42:35.552Z,12.13
2022-09-23T01:43:35.559Z,12.11
2022-09-23T01:44:35.574Z,12.09
2022-09-23T01:45:35.577Z,12.08
2022-09-23T01:46:35.585Z,12.06
2022-09-23T01:47:35.568Z,12.04
2022-09-23T01:48:35.640Z,12.03
2022-09-23T01:52:35.581Z,12.02
2022-09-23T01:53:35.568Z,12.01
2022-09-23T01:55:35.593Z,12.00
2022-09-23T01:57:35.595Z,12.01
2022-09-23T02:00:35.605Z,12.00
2022-09-23T02:01:35.679Z,11.99
2022-09-23T02:02:35.648Z,12.00
2022-09-23T02:03:35.607Z,12.02
2022-09-23T02:04:35.620Z,12.04
2022-09-23T02:05:35.611Z,12.05
2022-09-23T02:06:35.628Z,12.03
2022-09-23T02:07:35.606Z,12.02
2022-09-23T02:08:35.615Z,12.00
2022-09-23T02:09:35.637Z,11.99
2022-09-23T02:10:35.647Z,11.98
2022-09-23T02:12:35.622Z,11.99
2022-09-23T02:13:35.604Z,12.00
2022-09-23T02:15:35.626Z,11.99
2022-09-23T02:17:35.628Z,11.97
2022-09-23T02:18:35.632Z,11.96
2022-09-23T02:20:35.665Z,11.94
2022-09-23T02:21:35.643Z,11.93
2022-09-23T02:22:35.675Z,11.92
2022-09-23T02:23:35.645Z,11.91
2022-09-23T02:24:35.644Z,11.90
2022-09-23T02:25:35.654Z,11.89
2022-09-23T02:26:35.662Z,11.87
2022-09-23T02:27:35.666Z,11.86
2022-09-23T02:29:35.661Z,11.84
2022-09-23T02:30:35.654Z,11.82
2022-09-23T02:33:35.679Z,11.81
2022-09-23T02:34:35.683Z,11.80
2022-09-23T02:36:35.685Z,11.81
2022-09-23T02:37:35.703Z,11.80
2022-09-23T02:39:35.681Z,11.78
2022-09-23T02:40:35.738Z,11.77
2022-09-23T02:41:35.715Z,11.75
2022-09-23T02:43:35.709Z,11.74
2022-09-23T02:44:35.706Z,11.73
2022-09-23T02:45:35.724Z,11.71
2022-09-23T02:46:35.711Z,11.70
2022-09-23T02:47:35.705Z,11.68
2022-09-23T02:48:35.699Z,11.67
2022-09-23T02:49:35.712Z,11.66
2022-09-23T02:52:35.716Z,11.65
2022-09-23T02:54:35.759Z,11.64
2022-09-23T02:55:35.742Z,11.61
2022-09-23T02:56:35.738Z,11.59
2022-09-23T02:57:35.742Z,11.56
2022-09-23T02:58:35.742Z,11.55
2022-09-23T02:59:35.745Z,11.56
2022-09-23T03:01:35.807Z,11.55
2022-09-23T03:03:35.770Z,11.54
2022-09-23T03:05:35.773Z,11.52
2022-09-23T03:06:35.761Z,11.51
2022-09-23T03:07:35.765Z,11.49
2022-09-23T03:09:35.778Z,11.48
2022-09-23T03:10:35.755Z,11.46
2022-09-23T03:11:35.761Z,11.44
2022-09-23T03:12:35.789Z,11.43
2022-09-23T03:16:35.897Z,11.44
2022-09-23T03:17:35.778Z,11.43
2022-09-23T03:19:35.778Z,11.42
2022-09-23T03:20:35.782Z,11.41
2022-09-23T03:22:35.800Z,11.40
2022-09-23T03:23:35.805Z,11.38
2022-09-23T03:24:35.813Z,11.37
2022-09-23T03:25:35.782Z,11.39
2022-09-23T03:26:35.816Z,11.41
2022-09-23T03:27:35.820Z,11.43
2022-09-23T03:33:35.839Z,11.44
2022-09-23T03:36:35.833Z,11.43
2022-09-23T03:37:35.837Z,11.41
2022-09-23T03:38:35.836Z,11.38
2022-09-23T03:41:35.898Z,11.37
2022-09-23T03:42:35.833Z,11.34
2022-09-23T03:43:38.868Z,11.30
2022-09-23T03:44:35.875Z,11.25
2022-09-23T03:45:35.898Z,11.23
2022-09-23T03:46:35.869Z,11.19
2022-09-23T03:47:35.846Z,11.17
2022-09-23T03:48:35.874Z,11.15
2022-09-23T03:49:35.867Z,11.13
2022-09-23T03:50:35.866Z,11.12
2022-09-23T03:51:35.878Z,11.11
2022-09-23T03:54:35.866Z,11.10
2022-09-23T03:55:35.865Z,11.09
2022-09-23T03:56:35.877Z,11.08
2022-09-23T04:01:35.921Z,11.09
2022-09-23T04:02:35.918Z,11.08
2022-09-23T04:03:35.904Z,11.06
2022-09-23T04:05:35.902Z,11.07
2022-09-23T04:06:35.918Z,11.06
2022-09-23T04:08:35.917Z,11.07
2022-09-23T04:09:35.919Z,11.06
2022-09-23T04:11:35.944Z,11.05
2022-09-23T04:12:35.906Z,11.04
2022-09-23T04:13:35.929Z,11.05
2022-09-23T04:15:35.958Z,11.04
2022-09-23T04:16:36.000Z,11.05
2022-09-23T04:17:35.917Z,11.03
2022-09-23T04:18:35.936Z,11.04
2022-09-23T04:21:35.960Z,11.03
2022-09-23T04:22:35.959Z,11.04
2022-09-23T04:24:35.944Z,11.07
2022-09-23T04:25:35.935Z,11.09
2022-09-23T04:26:35.949Z,11.13
2022-09-23T04:27:37.968Z,11.15
2022-09-23T04:28:35.949Z,11.17
2022-09-23T04:29:35.984Z,11.18
2022-09-23T04:30:35.980Z,11.17
2022-09-23T04:31:36.021Z,11.16
2022-09-23T04:32:35.988Z,11.15
2022-09-23T04:33:35.959Z,11.14
2022-09-23T04:34:35.964Z,11.12
2022-09-23T04:35:40.049Z,11.13
2022-09-23T04:37:36.009Z,11.15
2022-09-23T04:38:35.988Z,11.16
2022-09-23T04:39:35.995Z,11.15
2022-09-23T04:40:36.121Z,11.14
2022-09-23T04:41:35.976Z,11.12
2022-09-23T04:42:35.970Z,11.10
2022-09-23T04:43:35.976Z,11.08
2022-09-23T04:47:36.022Z,11.07
2022-09-23T04:54:36.047Z,11.08
2022-09-23T04:56:36.061Z,11.10
2022-09-23T04:57:36.033Z,11.11
2022-09-23T04:58:36.030Z,11.13
2022-09-23T04:59:36.023Z,11.12
2022-09-23T05:00:36.077Z,11.11
2022-09-23T05:01:36.199Z,11.10
2022-09-23T05:02:36.075Z,11.11
2022-09-23T05:04:36.061Z,11.10
2022-09-23T05:06:36.053Z,11.11
2022-09-23T05:09:36.076Z,11.09
2022-09-23T05:10:36.090Z,11.07
2022-09-23T05:12:36.053Z,11.06
2022-09-23T05:13:36.064Z,11.05
2022-09-23T05:16:36.173Z,11.06
2022-09-23T05:17:36.078Z,11.09
2022-09-23T05:18:36.098Z,11.13
2022-09-23T05:19:36.077Z,11.16
2022-09-23T05:21:36.092Z,11.15
2022-09-23T05:22:36.082Z,11.16
2022-09-23T05:24:36.098Z,11.18
2022-09-23T05:25:38.329Z,11.20
2022-09-23T05:26:36.117Z,11.24
2022-09-23T05:27:36.120Z,11.27
2022-09-23T05:28:36.091Z,11.29
2022-09-23T05:29:36.129Z,11.28
2022-09-23T05:30:36.106Z,11.26
2022-09-23T05:32:36.119Z,11.24
2022-09-23T05:36:38.563Z,11.25
2022-09-23T05:38:36.139Z,11.26
2022-09-23T05:39:36.129Z,11.25
2022-09-23T05:40:36.200Z,11.24
2022-09-23T05:42:36.120Z,11.28
2022-09-23T05:43:36.130Z,11.30
2022-09-23T05:44:36.163Z,11.31
2022-09-23T05:45:36.145Z,11.32
2022-09-23T05:47:36.144Z,11.33
2022-09-23T05:48:36.166Z,11.35
2022-09-23T05:49:58.117Z,11.37
2022-09-23T05:50:36.138Z,11.39
2022-09-23T05:52:36.145Z,11.42
2022-09-23T05:53:36.167Z,11.45
2022-09-23T05:54:36.181Z,11.48
2022-09-23T05:55:36.163Z,11.52
2022-09-23T05:56:36.183Z,11.55
2022-09-23T05:57:36.166Z,11.58
2022-09-23T05:58:36.149Z,11.62
2022-09-23T05:59:36.222Z,11.63
2022-09-23T06:00:36.198Z,11.66
2022-09-23T06:01:36.213Z,11.69
2022-09-23T06:02:36.246Z,11.73
2022-09-23T06:03:36.218Z,11.75
2022-09-23T06:04:36.191Z,11.76
2022-09-23T06:05:36.225Z,11.78
2022-09-23T06:07:36.195Z,11.77
2022-09-23T06:09:36.658Z,11.79
2022-09-23T06:10:36.251Z,11.85
2022-09-23T06:11:36.205Z,11.92
2022-09-23T06:12:36.217Z,12.00
2022-09-23T06:13:36.209Z,12.10
2022-09-23T06:14:36.273Z,12.20
2022-09-23T06:15:36.266Z,12.31
2022-09-23T06:16:36.228Z,12.43
2022-09-23T06:17:36.233Z,12.56
2022-09-23T06:18:36.237Z,12.69
2022-09-23T06:19:36.243Z,12.84
2022-09-23T06:20:36.261Z,13.04
2022-09-23T06:21:36.232Z,13.33
2022-09-23T06:22:39.493Z,13.68
2022-09-23T06:23:39.004Z,14.10
2022-09-23T06:24:36.225Z,14.56
2022-09-23T06:25:36.264Z,15.05
2022-09-23T06:26:36.240Z,15.55
2022-09-23T06:27:36.227Z,16.04
2022-09-23T06:28:36.228Z,16.63
2022-09-23T06:29:36.247Z,17.24
2022-09-23T06:30:36.294Z,17.82
2022-09-23T06:31:36.373Z,18.35
2022-09-23T06:32:36.271Z,18.90
2022-09-23T06:33:37.205Z,19.45
2022-09-23T06:34:48.310Z,19.99
2022-09-23T06:35:36.368Z,20.57
2022-09-23T06:36:43.448Z,21.08
2022-09-23T06:37:36.290Z,21.57
2022-09-23T06:38:36.274Z,22.06
2022-09-23T06:39:36.260Z,22.49
2022-09-23T06:40:36.417Z,22.95
2022-09-23T06:41:36.302Z,23.40
2022-09-23T06:42:36.308Z,23.84
2022-09-23T06:43:36.294Z,24.21
2022-09-23T06:44:36.309Z,24.63
2022-09-23T06:45:36.337Z,25.00
2022-09-23T06:46:36.319Z,25.28
2022-09-23T06:47:36.311Z,25.54
2022-09-23T06:48:36.308Z,25.75
2022-09-23T06:49:36.291Z,25.52
2022-09-23T06:50:36.331Z,25.39
2022-09-23T06:51:36.316Z,25.58
2022-09-23T06:52:36.314Z,25.75
2022-09-23T06:53:36.332Z,25.86
2022-09-23T06:54:36.320Z,25.76
2022-09-23T06:55:36.361Z,25.36
2022-09-23T06:56:39.123Z,24.83
2022-09-23T06:57:36.343Z,24.21
2022-09-23T06:58:36.344Z,23.65
2022-09-23T06:59:36.311Z,23.17
2022-09-23T07:00:36.336Z,22.73
2022-09-23T07:01:36.605Z,22.32
2022-09-23T07:02:36.612Z,21.93
2022-09-23T07:03:36.461Z,21.50
2022-09-23T07:04:36.337Z,21.14
2022-09-23T07:05:36.455Z,20.85
2022-09-23T07:06:36.370Z,20.62
2022-09-23T07:07:36.354Z,20.43
2022-09-23T07:08:36.348Z,20.30
2022-09-23T07:09:36.372Z,20.27
2022-09-23T07:10:36.384Z,20.25
2022-09-23T07:11:36.368Z,20.28
2022-09-23T07:12:36.361Z,20.42
2022-09-23T07:13:36.370Z,20.65
2022-09-23T07:14:36.360Z,20.91
2022-09-23T07:15:36.439Z,21.14
2022-09-23T07:16:36.371Z,21.33
2022-09-23T07:17:36.390Z,21.52
2022-09-23T07:18:37.128Z,21.55
2022-09-23T07:19:36.406Z,21.51
2022-09-23T07:20:36.390Z,21.44
2022-09-23T07:21:36.389Z,21.27
2022-09-23T07:22:36.368Z,21.13
2022-09-23T07:23:36.386Z,20.91
2022-09-23T07:24:36.376Z,20.70
2022-09-23T07:25:36.407Z,20.55
2022-09-23T07:26:36.389Z,20.44
2022-09-23T07:27:36.462Z,20.42
2022-09-23T07:28:36.403Z,20.54
2022-09-23T07:29:46.180Z,20.84
2022-09-23T07:30:36.474Z,21.16
2022-09-23T07:31:39.343Z,21.62
2022-09-23T07:32:44.830Z,22.16
2022-09-23T07:33:36.458Z,22.82
2022-09-23T07:34:36.414Z,23.47
2022-09-23T07:35:36.452Z,24.11
2022-09-23T07:36:36.423Z,24.74
2022-09-23T07:37:36.423Z,25.33
2022-09-23T07:38:36.413Z,25.81
2022-09-23T07:39:36.416Z,26.15
2022-09-23T07:40:36.540Z,26.40
2022-09-23T07:41:36.455Z,26.49
2022-09-23T07:42:36.439Z,26.44
2022-09-23T07:43:36.471Z,26.23
2022-09-23T07:44:36.469Z,25.86
2022-09-23T07:45:36.472Z,25.34
2022-09-23T07:46:36.589Z,24.86
2022-09-23T07:47:36.469Z,24.32
2022-09-23T07:48:36.460Z,23.77
2022-09-23T07:49:36.447Z,23.24
2022-09-23T07:50:36.490Z,22.78
2022-09-23T07:51:36.909Z,22.60
2022-09-23T07:52:36.491Z,22.41
2022-09-23T07:53:36.460Z,22.13
2022-09-23T07:54:36.477Z,21.89
2022-09-23T07:55:36.515Z,21.87
2022-09-23T07:56:36.474Z,21.86
2022-09-23T07:57:36.510Z,21.91
2022-09-23T07:58:36.471Z,21.83
2022-09-23T07:59:36.490Z,21.87
2022-09-23T08:00:36.508Z,22.08
2022-09-23T08:01:36.527Z,22.28
2022-09-23T08:02:36.529Z,22.42
2022-09-23T08:03:36.502Z,22.62
2022-09-23T08:04:36.483Z,22.73
2022-09-23T08:05:36.516Z,22.84
2022-09-23T08:06:36.516Z,22.86
2022-09-23T08:07:36.492Z,22.80
2022-09-23T08:08:36.520Z,22.74
2022-09-23T08:09:36.499Z,22.56
2022-09-23T08:10:36.531Z,22.34
2022-09-23T08:11:36.506Z,22.07
2022-09-23T08:12:36.561Z,21.79
2022-09-23T08:13:36.546Z,21.60
2022-09-23T08:14:36.541Z,21.48
2022-09-23T08:15:36.606Z,21.38
2022-09-23T08:16:36.548Z,21.34
2022-09-23T08:17:36.542Z,21.45
2022-09-23T08:18:36.536Z,21.57
2022-09-23T08:19:36.547Z,21.64
2022-09-23T08:20:36.571Z,21.34
2022-09-23T08:21:36.545Z,21.15
2022-09-23T08:22:36.532Z,21.13
2022-09-23T08:23:36.553Z,21.10
2022-09-23T08:24:36.554Z,21.06
2022-09-23T08:26:36.622Z,21.14
2022-09-23T08:27:36.560Z,21.38
2022-09-23T08:28:36.584Z,21.53
2022-09-23T08:29:36.552Z,21.78
2022-09-23T08:30:36.772Z,22.03
2022-09-23T08:31:36.612Z,22.26
2022-09-23T08:32:36.577Z,22.63
2022-09-23T08:33:36.562Z,22.94
2022-09-23T08:34:36.572Z,23.14
2022-09-23T08:35:36.560Z,23.39
2022-09-23T08:36:36.611Z,23.45
2022-09-23T08:37:36.601Z,23.39
2022-09-23T08:38:36.609Z,23.36
2022-09-23T08:39:36.567Z,23.53
2022-09-23T08:40:36.610Z,23.88
2022-09-23T08:41:36.636Z,24.25
2022-09-23T08:42:36.611Z,24.64
2022-09-23T08:43:36.601Z,24.98
2022-09-23T08:44:36.598Z,24.82
2022-09-23T08:45:36.610Z,24.59
2022-09-23T08:46:36.660Z,24.61
2022-09-23T08:47:36.616Z,24.92
2022-09-23T08:48:36.609Z,25.27
2022-09-23T08:49:36.616Z,25.66
2022-09-23T08:50:36.594Z,26.05
2022-09-23T08:51:36.665Z,26.55
2022-09-23T08:52:36.632Z,27.13
2022-09-23T08:53:36.613Z,27.56
2022-09-23T08:54:36.631Z,27.76
2022-09-23T08:55:36.648Z,27.57
2022-09-23T08:56:36.684Z,27.53
2022-09-23T08:57:36.642Z,27.59
2022-09-23T08:58:36.672Z,27.79
2022-09-23T08:59:36.646Z,28.02
2022-09-23T09:00:36.653Z,28.28
2022-09-23T09:01:36.951Z,28.70
2022-09-23T09:02:36.712Z,29.07
2022-09-23T09:03:36.644Z,29.35
2022-09-23T09:04:36.639Z,29.62
2022-09-23T09:05:36.655Z,29.92
2022-09-23T09:06:51.714Z,30.24
2022-09-23T09:07:37.710Z,30.37
2022-09-23T09:08:36.677Z,30.38
2022-09-23T09:09:36.668Z,30.45
2022-09-23T09:10:36.672Z,30.69
2022-09-23T09:11:36.687Z,31.00
2022-09-23T09:12:36.669Z,31.21
2022-09-23T09:13:36.676Z,31.17
2022-09-23T09:14:36.678Z,31.14
2022-09-23T09:15:36.727Z,31.21
2022-09-23T09:17:36.677Z,31.29
2022-09-23T09:18:36.691Z,31.31
2022-09-23T09:19:36.696Z,31.35
2022-09-23T09:20:36.700Z,31.43
2022-09-23T09:21:36.727Z,31.51
2022-09-23T09:23:36.698Z,31.48
2022-09-23T09:24:36.727Z,31.38
2022-09-23T09:25:36.697Z,31.13
2022-09-23T09:26:36.773Z,30.64
2022-09-23T09:27:36.718Z,30.22
2022-09-23T09:28:36.715Z,29.86
2022-09-23T09:29:36.862Z,29.60
2022-09-23T09:30:36.775Z,29.39
2022-09-23T09:31:36.851Z,28.96
2022-09-23T09:32:36.744Z,28.64
2022-09-23T09:33:36.711Z,28.45
2022-09-23T09:34:36.727Z,28.35
2022-09-23T09:35:36.810Z,28.27
2022-09-23T09:36:36.738Z,28.21
2022-09-23T09:37:36.724Z,28.16
2022-09-23T09:38:36.734Z,28.06
2022-09-23T09:39:36.747Z,28.02
2022-09-23T09:40:36.861Z,28.06
2022-09-23T09:41:36.776Z,28.07
2022-09-23T09:42:36.760Z,28.02
2022-09-23T09:43:38.835Z,27.93
2022-09-23T09:44:37.177Z,27.82
2022-09-23T09:45:36.747Z,27.69
2022-09-23T09:46:36.907Z,27.37
2022-09-23T09:47:36.772Z,27.11
2022-09-23T09:48:36.756Z,26.96
2022-09-23T09:49:40.119Z,26.95
2022-09-23T09:50:36.759Z,27.00
2022-09-23T09:51:36.798Z,27.01
2022-09-23T09:52:37.749Z,27.03
2022-09-23T09:53:36.739Z,27.10
2022-09-23T09:54:36.767Z,27.15
2022-09-23T09:55:36.741Z,27.18
2022-09-23T09:56:36.835Z,27.21
2022-09-23T09:57:36.818Z,27.24
2022-09-23T09:58:36.746Z,27.25
2022-09-23T09:59:36.744Z,27.28
2022-09-23T10:00:36.734Z,27.30
2022-09-23T10:01:36.849Z,27.17
2022-09-23T10:02:38.007Z,26.88
2022-09-23T10:03:36.748Z,26.80
2022-09-23T10:04:36.851Z,26.77
2022-09-23T10:05:36.749Z,26.52
2022-09-23T10:06:36.801Z,26.35
2022-09-23T10:07:36.767Z,26.34
2022-09-23T10:09:36.779Z,26.36
2022-09-23T10:10:36.769Z,26.38
2022-09-23T10:11:36.811Z,26.39
2022-09-23T10:12:36.781Z,26.43
2022-09-23T10:13:36.774Z,26.45
2022-09-23T10:14:36.787Z,26.46
2022-09-23T10:15:39.304Z,26.50
2022-09-23T10:16:36.875Z,26.56
2022-09-23T10:17:36.788Z,26.63
2022-09-23T10:18:36.765Z,26.68
2022-09-23T10:19:36.795Z,26.66
2022-09-23T10:20:36.791Z,26.65
2022-09-23T10:21:36.835Z,26.67
2022-09-23T10:22:36.808Z,26.72
2022-09-23T10:23:36.785Z,26.59
2022-09-23T10:24:36.814Z,26.50
2022-09-23T10:25:36.838Z,26.51
2022-09-23T10:26:36.860Z,26.56
2022-09-23T10:27:36.835Z,26.61
2022-09-23T10:28:36.802Z,26.65
2022-09-23T10:29:36.821Z,26.63
2022-09-23T10:30:36.906Z,26.65
2022-09-23T10:32:36.846Z,26.59
2022-09-23T10:34:36.822Z,26.60
2022-09-23T10:35:36.866Z,26.63
2022-09-23T10:36:40.084Z,26.61
2022-09-23T10:37:36.903Z,26.59
2022-09-23T10:38:36.838Z,26.58
2022-09-23T10:39:36.838Z,26.56
2022-09-23T10:40:36.908Z,26.54
2022-09-23T10:42:36.891Z,26.56
2022-09-23T10:43:36.843Z,26.60
2022-09-23T10:44:36.873Z,26.54
2022-09-23T10:45:39.688Z,26.40
2022-09-23T10:46:36.942Z,26.32
2022-09-23T10:47:36.910Z,26.26
2022-09-23T10:49:36.876Z,26.24
2022-09-23T10:50:36.863Z,26.18
2022-09-23T10:52:38.398Z,26.15
2022-09-23T10:53:36.869Z,26.11
2022-09-23T10:54:36.887Z,26.07
2022-09-23T10:55:36.907Z,26.03
2022-09-23T10:56:36.917Z,26.06
2022-09-23T10:57:36.894Z,26.09
2022-09-23T10:58:36.938Z,26.13
2022-09-23T10:59:36.918Z,26.15
2022-09-23T11:00:36.932Z,26.14
2022-09-23T11:01:36.969Z,26.13
2022-09-23T11:02:36.915Z,26.14
2022-09-23T11:04:37.094Z,26.05
2022-09-23T11:05:36.975Z,26.02
2022-09-23T11:06:36.908Z,25.99
2022-09-23T11:07:37.399Z,25.96
2022-09-23T11:08:36.925Z,25.90
2022-09-23T11:09:36.950Z,25.83
2022-09-23T11:12:36.953Z,25.84
2022-09-23T11:13:36.953Z,25.82
2022-09-23T11:15:36.994Z,25.84
2022-09-23T11:16:37.050Z,25.89
2022-09-23T11:17:37.010Z,25.92
2022-09-23T11:19:36.954Z,25.91
2022-09-23T11:20:37.025Z,25.86
2022-09-23T11:21:36.980Z,25.81
2022-09-23T11:22:36.997Z,25.75
2022-09-23T11:23:36.977Z,25.68
2022-09-23T11:24:36.983Z,25.62
2022-09-23T11:25:37.033Z,25.55
2022-09-23T11:26:36.968Z,25.48
2022-09-23T11:27:36.968Z,25.39
2022-09-23T11:28:36.992Z,25.30
2022-09-23T11:29:36.970Z,25.24
2022-09-23T11:30:37.083Z,25.06
2022-09-23T11:31:36.986Z,25.00
2022-09-23T11:32:37.042Z,24.96
2022-09-23T11:35:37.088Z,24.92
2022-09-23T11:36:37.076Z,24.91
2022-09-23T11:38:37.036Z,24.78
2022-09-23T11:39:37.038Z,24.74
2022-09-23T11:40:38.892Z,24.73
2022-09-23T11:41:37.076Z,24.74
2022-09-23T11:42:37.032Z,24.76
2022-09-23T11:43:37.034Z,24.80
2022-09-23T11:44:37.034Z,24.84
2022-09-23T11:45:37.121Z,24.92
2022-09-23T11:46:37.105Z,24.98
2022-09-23T11:47:39.741Z,25.00
2022-09-23T11:48:37.051Z,24.97
2022-09-23T11:50:37.078Z,24.95
2022-09-23T11:51:37.102Z,24.92
2022-09-23T11:52:37.079Z,24.85
2022-09-23T11:53:37.065Z,24.87
2022-09-23T11:54:37.063Z,24.93
2022-09-23T11:55:38.091Z,25.00
2022-09-23T11:56:38.355Z,25.04
2022-09-23T11:58:37.134Z,25.06
2022-09-23T11:59:40.130Z,25.01
2022-09-23T12:00:37.112Z,25.00
2022-09-23T12:03:43.936Z,25.01
2022-09-23T12:04:44.456Z,25.03
2022-09-23T12:05:37.187Z,25.04
2022-09-23T12:07:38.394Z,24.94
2022-09-23T12:08:37.146Z,24.89
2022-09-23T12:09:57.127Z,24.88
2022-09-23T12:10:37.123Z,24.89
2022-09-23T12:11:37.116Z,24.87
2022-09-23T12:12:37.118Z,24.84
2022-09-23T12:13:37.151Z,24.83
2022-09-23T12:14:37.123Z,24.66
2022-09-23T12:15:37.134Z,24.53
2022-09-23T12:16:37.200Z,24.40
2022-09-23T12:17:37.118Z,24.35
2022-09-23T12:18:37.152Z,24.36
2022-09-23T12:19:37.133Z,24.38
2022-09-23T12:20:37.134Z,24.37
2022-09-23T12:21:50.248Z,24.42
2022-09-23T12:22:37.131Z,24.45
2022-09-23T12:24:37.195Z,24.49
2022-09-23T12:25:37.142Z,24.52
2022-09-23T12:26:37.136Z,24.53
2022-09-23T12:27:37.179Z,24.56
2022-09-23T12:28:37.165Z,24.61
2022-09-23T12:29:37.197Z,24.62
2022-09-23T12:30:37.249Z,24.64
2022-09-23T12:31:40.392Z,24.60
2022-09-23T12:32:37.179Z,24.63
2022-09-23T12:33:37.196Z,24.67
2022-09-23T12:34:37.198Z,24.66
2022-09-23T12:35:37.183Z,24.67
2022-09-23T12:36:37.181Z,24.71
2022-09-23T12:39:37.229Z,24.74
2022-09-23T12:40:37.238Z,24.51
2022-09-23T12:41:37.194Z,24.39
2022-09-23T12:42:37.209Z,24.30
2022-09-23T12:43:37.173Z,24.31
2022-09-23T12:44:37.230Z,24.36
2022-09-23T12:45:37.315Z,24.32
2022-09-23T12:47:37.248Z,24.31
2022-09-23T12:48:37.231Z,24.33
2022-09-23T12:49:37.244Z,24.34
2022-09-23T12:50:37.220Z,24.37
2022-09-23T12:51:37.200Z,24.36
2022-09-23T12:52:37.227Z,24.25
2022-09-23T12:53:37.210Z,24.20
2022-09-23T12:54:37.289Z,24.19
2022-09-23T12:55:37.253Z,24.21
2022-09-23T12:56:37.255Z,24.25
2022-09-23T12:57:37.255Z,24.19
2022-09-23T12:58:37.242Z,24.17
2022-09-23T13:00:37.277Z,24.21
2022-09-23T13:01:37.354Z,24.15
2022-09-23T13:02:37.325Z,24.14
2022-09-23T13:03:37.248Z,24.17
2022-09-23T13:04:37.262Z,24.18
2022-09-23T13:05:37.289Z,24.20
2022-09-23T13:06:37.304Z,24.22
2022-09-23T13:07:37.289Z,24.25
2022-09-23T13:08:37.268Z,24.30
2022-09-23T13:09:37.274Z,24.22
2022-09-23T13:11:37.293Z,24.27
2022-09-23T13:12:37.273Z,24.28
2022-09-23T13:14:37.288Z,24.32
2022-09-23T13:15:37.308Z,24.36
2022-09-23T13:16:37.332Z,24.39
2022-09-23T13:17:37.304Z,24.42
2022-09-23T13:19:38.891Z,24.36
2022-09-23T13:20:37.298Z,24.31
2022-09-23T13:21:37.340Z,24.29
2022-09-23T13:22:37.302Z,24.30
2022-09-23T13:23:37.302Z,24.32
2022-09-23T13:24:37.321Z,24.36
2022-09-23T13:25:37.324Z,24.38
2022-09-23T13:27:37.354Z,24.37
2022-09-23T13:28:37.321Z,24.31
2022-09-23T13:29:37.325Z,24.21
2022-09-23T13:30:37.337Z,24.20
2022-09-23T13:31:37.345Z,24.21
2022-09-23T13:33:37.369Z,24.26
2022-09-23T13:34:37.338Z,24.31
2022-09-23T13:35:37.341Z,24.36
2022-09-23T13:36:37.343Z,24.42
2022-09-23T13:37:37.351Z,24.44
2022-09-23T13:38:37.367Z,24.46
2022-09-23T13:39:37.353Z,24.48
2022-09-23T13:40:37.398Z,24.43
2022-09-23T13:42:37.353Z,24.44
2022-09-23T13:44:37.431Z,24.45
2022-09-23T13:45:37.402Z,24.48
2022-09-23T13:46:37.361Z,24.47
2022-09-23T13:47:37.368Z,24.49
2022-09-23T13:48:37.360Z,24.51
2022-09-23T13:49:37.435Z,24.49
2022-09-23T13:50:37.381Z,24.48
2022-09-23T13:51:37.424Z,24.49
2022-09-23T13:53:37.384Z,24.46
2022-09-23T13:54:37.432Z,24.40
2022-09-23T13:55:37.392Z,24.36
2022-09-23T13:57:37.398Z,24.33
2022-09-23T13:58:37.383Z,24.35
2022-09-23T13:59:37.458Z,24.36
2022-09-23T14:00:37.391Z,24.38
2022-09-23T14:01:37.441Z,24.40
2022-09-23T14:02:37.473Z,24.42
2022-09-23T14:03:37.436Z,24.39
2022-09-23T14:04:37.444Z,24.35
2022-09-23T14:05:37.417Z,24.36
2022-09-23T14:06:37.428Z,24.37
2022-09-23T14:07:37.443Z,24.38
2022-09-23T14:09:37.449Z,24.37
2022-09-23T14:12:37.439Z,24.38
2022-09-23T14:13:37.437Z,24.39
2022-09-23T14:14:37.467Z,24.40
2022-09-23T14:15:37.469Z,24.41
2022-09-23T14:16:37.527Z,24.42
2022-09-23T14:17:37.471Z,24.44
2022-09-23T14:18:37.462Z,24.46
2022-09-23T14:19:37.485Z,24.48
2022-09-23T14:20:37.473Z,24.49
2022-09-23T14:21:37.460Z,24.51
2022-09-23T14:22:37.490Z,24.52
2022-09-23T14:23:37.458Z,24.50
2022-09-23T14:24:37.511Z,24.48
2022-09-23T14:25:37.471Z,24.47
2022-09-23T14:26:37.496Z,24.46
2022-09-23T14:27:37.484Z,24.48
2022-09-23T14:28:37.500Z,24.51
2022-09-23T14:29:37.516Z,24.54
2022-09-23T14:30:37.512Z,24.55
2022-09-23T14:31:37.539Z,24.56
2022-09-23T14:32:37.495Z,24.57
2022-09-23T14:33:37.519Z,24.42
2022-09-23T14:34:37.533Z,24.39
2022-09-23T14:35:37.510Z,24.38
2022-09-23T14:36:37.494Z,24.33
2022-09-23T14:37:37.511Z,24.26
2022-09-23T14:38:37.497Z,24.23
2022-09-23T14:39:37.551Z,24.20
2022-09-23T14:40:37.590Z,24.15
2022-09-23T14:41:37.518Z,24.11
2022-09-23T14:42:37.542Z,24.08
2022-09-23T14:43:38.963Z,24.07
2022-09-23T14:45:37.648Z,24.08
2022-09-23T14:46:37.532Z,24.09
2022-09-23T14:48:37.542Z,24.08
2022-09-23T14:49:37.552Z,24.04
2022-09-23T14:50:37.572Z,23.99
2022-09-23T14:51:37.544Z,23.94
2022-09-23T14:52:38.179Z,23.91
2022-09-23T14:54:37.554Z,23.93
2022-09-23T14:55:37.563Z,23.94
2022-09-23T14:56:37.568Z,23.95
2022-09-23T14:57:37.560Z,23.97
2022-09-23T14:58:37.585Z,23.99
2022-09-23T14:59:37.560Z,24.00
2022-09-23T15:03:37.636Z,23.99
2022-09-23T15:06:37.602Z,24.00
2022-09-23T15:07:37.594Z,24.01
2022-09-23T15:08:37.618Z,23.97
2022-09-23T15:09:37.601Z,23.98
2022-09-23T15:10:37.593Z,24.00
2022-09-23T15:11:37.595Z,24.02
2022-09-23T15:12:38.888Z,24.04
2022-09-23T15:13:37.610Z,24.06
2022-09-23T15:14:38.833Z,24.00
2022-09-23T15:15:37.643Z,23.98
2022-09-23T15:16:37.672Z,23.96
2022-09-23T15:17:37.636Z,23.95
2022-09-23T15:18:37.637Z,23.94
2022-09-23T15:20:37.624Z,23.93
2022-09-23T15:21:37.611Z,23.92
2022-09-23T15:22:37.604Z,23.93
2022-09-23T15:24:37.703Z,23.92
2022-09-23T15:25:37.663Z,23.90
2022-09-23T15:26:37.659Z,23.87
2022-09-23T15:27:37.656Z,23.85
2022-09-23T15:28:37.643Z,23.83